Terminal Aerodrome Forecast
Issued by NWS

Current Version | Previous Version | Text Only | Print | Product List | Glossary Off
Versions: 1 2 3 4 5 6 7 8 9 10 11 12 13 14 15 16 17 18 19

000
FTUS41 KILN 260500
TAFLUK
TAF
KLUK 260539Z 2606/2706 01011G19KT 1 1/2SM -SN OVC012
     FM260630 36012G20KT 3SM -SN OVC015
     FM260900 35012G20KT P6SM OVC018
     FM261200 35012KT P6SM OVC022
     FM261700 32010KT P6SM SCT022 BKN200
     FM262200 34004KT P6SM FEW020 SCT090=

USA.gov is the U.S. government's official web portal to all federal, state and local government web resources and services.